Rock Springs, WY

12:54 AM MDT on August 22, 2014 (GMT -0600)
Rock Springs-Sweetwater | Change Station
CLOSE
Current Station
Airport
Location: Rock Springs,
Elevation: 6759 ft
Nearby Weather Stations

Elev 6759 ft 41.59 °N, 109.05 °W | Updated 1 hour ago

Clear
Clear
55 °F
Feels Like 55 °F
N
0
Wind Variable Wind from North

Today
High -- | Low -- °F
--% Chance of Precip.
Yesterday
High -- | Low -- °F
Precip. -- in
6:31 AM 8:04 PM
Waning Crescent, 10% visible
Pressure 30.00 in
Visibility 10.0 miles
Clouds Clear
Dew Point 42 °F
Humidity 62%
Rainfall 0.00 in
Snow Depth Not available.
UV 0 out of 12
Pollen 9.00 out of 12
Air Quality Not available.
Flu Activity Not available.
METAR KRKS 220554Z AUTO 00000KT 10SM CLR 13/06 A3021 RMK AO2 SLP158 T01280056 10161 20111 58005

More Conditions Fewer Conditions

Pressure 30.00 in
Visibility 10.0 miles
Clouds Clear
Dew Point 42 °F
Humidity 62%
Rainfall 0.00 in
Snow Depth Not available.
UV 0 out of 12
Pollen 9.00 out of 12
Air Quality Not available.
Flu Activity Not available.
METAR KRKS 220554Z AUTO 00000KT 10SM CLR 13/06 A3021 RMK AO2 SLP158 T01280056 10161 20111 58005

More Conditions Fewer Conditions

10-Day Weather Forecast

Almanac

Astronomy

Aug. 22, 2014 Rise Set
Actual Time 6:31 AM MDT 8:04 PM MDT
Civil Twilight 6:02 AM MDT 8:34 PM MDT
Nautical Twilight 5:26 AM MDT 9:09 PM MDT
Astronomical Twilight 4:49 AM MDT 9:46 PM MDT
Moon 3:56 AM MDT 6:15 PM MDT
Length of Visible Light 14h 31m
Length of Day
13h 33m
Tomorrow will be 2m 35s shorter.
Waning Crescent, 10% of the Moon is Illuminated
Today
Waning Crescent
Aug 25
New
Sep 2
First Quarter
Sep 8
Full
Sep 15
Last Quarter

Today's Extremes

State Highs State Lows

Community

WunderPhotos

Upload Photos

1,746,131 photos uploaded!

Nearby

Snow Depth

Station Depth Elevation
South Pass 0 in 9040 ft
Deer Park 0 in 9700 ft
Big Sandy Opening 1 in 9080 ft
Hobbs Park 0 in 10100 ft
Sage Creek Basin 0 in 7850 ft

Earthquake Activity

City Distance Mag. Time & Date
No recent earthquake activity has been reported nearby.
Minimum magnitude displayed is 2.5.

Coastal Water Temperatures

Place Temperature
No Stations Reporting

Nearby Weather Stations